createdAt,value
2023-03-21T00:02:05.070Z,17.60
2023-03-21T00:04:50.956Z,16.80
2023-03-21T00:07:24.476Z,16.60
2023-03-21T00:10:04.965Z,17.30
2023-03-21T00:12:45.536Z,16.90
2023-03-21T00:15:20.569Z,16.80
2023-03-21T00:17:54.424Z,17.20
2023-03-21T00:20:35.339Z,14.70
2023-03-21T00:23:07.491Z,15.20
2023-03-21T00:25:41.221Z,15.00
2023-03-21T00:28:11.166Z,13.90
2023-03-21T00:30:44.023Z,14.90
2023-03-21T00:36:05.132Z,14.70
2023-03-21T00:38:41.098Z,14.60
2023-03-21T00:41:35.129Z,14.10
2023-03-21T00:44:26.829Z,13.20
2023-03-21T00:47:07.005Z,16.40
2023-03-21T00:49:44.977Z,14.90
2023-03-21T00:52:20.391Z,13.80
2023-03-21T00:54:56.409Z,15.00
2023-03-21T00:57:37.909Z,14.50
2023-03-21T01:00:12.590Z,12.60
2023-03-21T01:03:14.247Z,14.30
2023-03-21T01:06:04.861Z,13.80
2023-03-21T01:08:51.771Z,14.60
2023-03-21T01:11:24.826Z,13.80
2023-03-21T01:16:51.395Z,15.00
2023-03-21T01:19:35.237Z,16.50
2023-03-21T01:22:20.293Z,15.10
2023-03-21T01:24:58.634Z,15.40
2023-03-21T01:27:35.342Z,15.20
2023-03-21T01:30:11.281Z,16.30
2023-03-21T01:32:47.618Z,16.20
2023-03-21T01:35:16.921Z,17.30
2023-03-21T01:37:49.440Z,14.60
2023-03-21T01:40:23.087Z,16.10
2023-03-21T01:42:54.788Z,17.60
2023-03-21T01:46:03.314Z,16.00
2023-03-21T01:49:16.625Z,16.40
2023-03-21T01:51:56.663Z,22.70
2023-03-21T01:54:31.788Z,15.10
2023-03-21T01:57:05.669Z,17.40
2023-03-21T01:59:43.857Z,15.70
2023-03-21T02:02:58.303Z,15.70
2023-03-21T02:06:02.600Z,17.00
2023-03-21T02:09:04.923Z,19.00
2023-03-21T02:11:34.865Z,17.80
2023-03-21T02:14:07.020Z,17.30
2023-03-21T02:16:58.061Z,17.40
2023-03-21T02:19:53.308Z,21.70
2023-03-21T02:23:00.648Z,18.80
2023-03-21T02:26:10.195Z,16.20
2023-03-21T02:28:56.596Z,19.70
2023-03-21T02:32:16.539Z,16.80
2023-03-21T02:35:52.352Z,17.60
2023-03-21T02:38:28.512Z,17.80
2023-03-21T02:41:19.110Z,19.00
2023-03-21T02:43:59.049Z,19.80
2023-03-21T02:46:45.436Z,19.30
2023-03-21T02:49:43.247Z,20.50
2023-03-21T02:52:32.113Z,21.50
2023-03-21T02:55:32.960Z,19.80
2023-03-21T02:58:13.379Z,18.80
2023-03-21T03:00:57.927Z,20.40
2023-03-21T03:03:37.171Z,20.90
2023-03-21T03:06:15.083Z,20.10
2023-03-21T03:09:02.648Z,20.50
2023-03-21T03:11:39.936Z,20.50
2023-03-21T03:14:44.353Z,22.30
2023-03-21T03:17:28.438Z,19.00
2023-03-21T03:20:32.704Z,20.50
2023-03-21T03:23:26.252Z,18.00
2023-03-21T03:26:08.914Z,21.40
2023-03-21T03:28:59.099Z,21.40
2023-03-21T03:31:36.886Z,19.50
2023-03-21T03:34:11.026Z,19.90
2023-03-21T03:36:43.901Z,21.20
2023-03-21T03:39:16.777Z,26.20
2023-03-21T03:42:27.710Z,26.30
2023-03-21T03:45:06.738Z,23.60
2023-03-21T03:47:54.164Z,20.00
2023-03-21T03:50:33.581Z,21.80
2023-03-21T03:53:18.589Z,21.20
2023-03-21T03:55:56.639Z,21.50
2023-03-21T03:58:33.572Z,21.20
2023-03-21T04:01:08.117Z,22.50
2023-03-21T04:03:49.763Z,21.90
2023-03-21T04:06:22.335Z,23.70
2023-03-21T04:08:53.487Z,24.10
2023-03-21T04:11:26.284Z,23.40
2023-03-21T04:13:56.660Z,21.90
2023-03-21T04:16:28.541Z,22.40
2023-03-21T04:18:59.027Z,21.60
2023-03-21T04:21:29.485Z,23.30
2023-03-21T04:24:09.180Z,23.80
2023-03-21T04:26:41.952Z,29.50
2023-03-21T04:29:31.232Z,29.40
2023-03-21T04:32:25.642Z,26.00
2023-03-21T04:35:09.129Z,26.50
2023-03-21T04:37:47.908Z,21.20
2023-03-21T04:40:20.797Z,23.50
2023-03-21T04:42:55.349Z,21.90
2023-03-21T04:45:24.560Z,20.90
2023-03-21T04:48:02.232Z,20.10
2023-03-21T04:50:38.075Z,20.70
2023-03-21T04:53:10.661Z,23.90
2023-03-21T04:55:46.794Z,22.70
2023-03-21T04:58:22.133Z,24.80
2023-03-21T05:00:53.286Z,24.60
2023-03-21T05:03:34.636Z,21.60
2023-03-21T05:06:19.387Z,25.40
2023-03-21T05:09:07.957Z,23.00
2023-03-21T05:12:03.483Z,24.30
2023-03-21T05:14:36.097Z,22.60
2023-03-21T05:17:15.553Z,21.30
2023-03-21T05:19:50.655Z,22.20
2023-03-21T05:22:21.402Z,21.60
2023-03-21T05:24:59.003Z,22.10
2023-03-21T05:27:45.486Z,20.10
2023-03-21T05:30:21.008Z,20.00
2023-03-21T05:33:43.200Z,19.20
2023-03-21T05:36:15.990Z,17.80
2023-03-21T05:38:48.940Z,23.40
2023-03-21T05:41:21.033Z,22.50
2023-03-21T05:43:50.989Z,23.90
2023-03-21T05:46:22.170Z,26.40
2023-03-21T05:48:52.511Z,29.70
2023-03-21T05:51:25.536Z,32.70
2023-03-21T05:54:20.262Z,33.30
2023-03-21T05:56:49.297Z,27.00
2023-03-21T05:59:51.880Z,28.50
2023-03-21T06:02:24.688Z,24.80
2023-03-21T06:04:54.811Z,26.60
2023-03-21T06:07:28.724Z,22.70
2023-03-21T06:09:57.601Z,21.00
2023-03-21T06:12:30.584Z,20.50
2023-03-21T06:15:08.712Z,22.60
2023-03-21T06:17:54.483Z,21.30
2023-03-21T06:20:28.204Z,19.90
2023-03-21T06:23:08.660Z,21.90
2023-03-21T06:25:39.358Z,21.60
2023-03-21T06:28:35.079Z,22.20
2023-03-21T06:31:10.585Z,22.90
2023-03-21T06:34:10.658Z,23.00
2023-03-21T06:36:48.187Z,21.90
2023-03-21T06:39:18.894Z,22.50
2023-03-21T06:41:47.948Z,22.20
2023-03-21T06:44:26.410Z,22.80
2023-03-21T06:47:06.278Z,20.70
2023-03-21T06:49:38.273Z,21.30
2023-03-21T06:52:11.830Z,19.30
2023-03-21T06:54:43.644Z,18.50
2023-03-21T06:57:22.359Z,20.40
2023-03-21T06:59:52.734Z,22.70
2023-03-21T07:02:27.578Z,19.60
2023-03-21T07:05:09.654Z,20.40
2023-03-21T07:07:39.357Z,19.60
2023-03-21T07:10:14.411Z,22.10
2023-03-21T07:13:04.883Z,21.80
2023-03-21T07:15:39.292Z,20.30
2023-03-21T07:18:10.756Z,23.30
2023-03-21T07:20:47.960Z,21.40
2023-03-21T07:24:14.588Z,20.80
2023-03-21T07:26:56.492Z,20.60
2023-03-21T07:29:49.992Z,20.20
2023-03-21T07:32:18.476Z,22.60
2023-03-21T07:34:51.055Z,20.00
2023-03-21T07:37:23.527Z,22.10
2023-03-21T07:39:58.726Z,21.60
2023-03-21T07:42:29.821Z,19.50
2023-03-21T07:45:04.838Z,20.10
2023-03-21T07:47:40.490Z,19.80
2023-03-21T07:50:11.741Z,21.70
2023-03-21T07:52:42.034Z,22.50
2023-03-21T07:55:12.299Z,18.20
2023-03-21T07:57:46.863Z,19.50
2023-03-21T08:00:23.808Z,21.00
2023-03-21T08:02:58.752Z,20.20
2023-03-21T08:05:44.451Z,19.40
2023-03-21T08:08:14.281Z,19.50
2023-03-21T08:10:45.206Z,18.20
2023-03-21T08:13:15.745Z,18.20
2023-03-21T08:15:45.859Z,19.30
2023-03-21T08:18:15.633Z,16.70
2023-03-21T08:20:44.953Z,17.50
2023-03-21T08:23:21.177Z,18.40
2023-03-21T08:25:54.603Z,16.70
2023-03-21T08:28:26.679Z,16.10
2023-03-21T08:31:09.216Z,19.60
2023-03-21T08:33:40.939Z,19.00
2023-03-21T08:36:12.095Z,18.70
2023-03-21T08:38:41.783Z,18.30
2023-03-21T08:41:13.109Z,18.70
2023-03-21T08:43:57.693Z,16.90
2023-03-21T08:46:34.040Z,18.90
2023-03-21T08:49:04.199Z,17.80
2023-03-21T08:51:35.506Z,18.10
2023-03-21T08:54:06.941Z,18.20
2023-03-21T08:56:38.228Z,16.60
2023-03-21T08:59:06.540Z,17.90
2023-03-21T09:01:40.877Z,18.40
2023-03-21T09:04:13.512Z,18.50
2023-03-21T09:06:45.275Z,16.70
2023-03-21T09:09:13.363Z,16.50
2023-03-21T09:11:45.815Z,16.60
2023-03-21T09:14:16.152Z,15.00
2023-03-21T09:16:44.990Z,15.80
2023-03-21T09:19:16.893Z,14.80
2023-03-21T09:21:47.010Z,16.90
2023-03-21T09:24:17.628Z,15.10
2023-03-21T09:26:53.214Z,14.80
2023-03-21T09:29:21.362Z,15.60
2023-03-21T09:32:18.606Z,15.20
2023-03-21T09:34:48.656Z,14.20
2023-03-21T09:37:17.243Z,12.80
2023-03-21T09:39:47.615Z,14.10
2023-03-21T09:42:56.565Z,13.90
2023-03-21T09:45:49.423Z,13.50
2023-03-21T09:49:18.513Z,15.70
2023-03-21T09:51:50.092Z,14.40
2023-03-21T09:57:41.362Z,13.70
2023-03-21T10:00:46.722Z,13.80
2023-03-21T10:03:29.217Z,17.00
2023-03-21T10:05:58.348Z,21.90
2023-03-21T10:08:30.168Z,27.40
2023-03-21T10:11:04.602Z,27.40
2023-03-21T10:13:37.498Z,25.50
2023-03-21T10:16:19.580Z,26.00
2023-03-21T10:18:47.623Z,25.70
2023-03-21T10:21:47.477Z,25.80
2023-03-21T10:24:13.363Z,24.50
2023-03-21T10:26:40.996Z,24.40
2023-03-21T10:29:16.498Z,22.50
2023-03-21T10:31:45.421Z,21.80
2023-03-21T10:34:27.061Z,23.20
2023-03-21T10:36:59.463Z,23.10
2023-03-21T10:39:38.833Z,24.50
2023-03-21T10:42:28.938Z,25.10
2023-03-21T10:44:57.393Z,23.30
2023-03-21T10:47:28.283Z,22.30
2023-03-21T10:50:11.878Z,21.60
2023-03-21T10:52:53.271Z,24.10
2023-03-21T10:55:32.786Z,25.00
2023-03-21T10:58:10.199Z,23.10
2023-03-21T11:00:41.639Z,21.30
2023-03-21T11:03:30.781Z,20.30
2023-03-21T11:06:05.682Z,22.60
2023-03-21T11:08:38.901Z,21.90
2023-03-21T11:11:15.274Z,20.20
2023-03-21T11:13:44.899Z,21.50
2023-03-21T11:16:26.660Z,19.30
2023-03-21T11:21:29.689Z,19.70
2023-03-21T11:23:58.798Z,19.60
2023-03-21T11:26:37.949Z,19.70
2023-03-21T11:30:10.346Z,19.60
2023-03-21T11:32:38.221Z,18.90
2023-03-21T11:35:22.071Z,20.50
2023-03-21T11:38:01.591Z,19.70
2023-03-21T11:43:19.876Z,18.00
2023-03-21T11:46:05.759Z,18.60
2023-03-21T11:48:41.702Z,16.00
2023-03-21T11:51:11.667Z,17.60
2023-03-21T11:54:18.749Z,17.30
2023-03-21T11:56:53.831Z,16.70
2023-03-21T11:59:37.290Z,17.20
2023-03-21T12:02:36.004Z,16.20
2023-03-21T12:05:16.698Z,16.60
2023-03-21T12:08:08.900Z,17.20
2023-03-21T12:10:46.678Z,15.30
2023-03-21T12:13:45.807Z,16.40
2023-03-21T12:16:21.844Z,17.80
2023-03-21T12:19:21.607Z,16.10
2023-03-21T12:21:55.165Z,16.30
2023-03-21T12:24:45.457Z,15.70
2023-03-21T12:27:22.997Z,14.90
2023-03-21T12:30:29.052Z,16.50
2023-03-21T12:33:41.092Z,15.70
2023-03-21T12:36:23.703Z,15.30
2023-03-21T12:39:05.144Z,14.70
2023-03-21T12:42:04.398Z,15.80
2023-03-21T12:44:36.050Z,16.60
2023-03-21T12:47:10.720Z,16.30
2023-03-21T12:49:48.674Z,17.00
2023-03-21T12:52:26.806Z,15.40
2023-03-21T12:55:10.615Z,16.50
2023-03-21T12:57:47.777Z,17.40
2023-03-21T13:00:53.542Z,17.20
2023-03-21T13:03:27.680Z,17.80
2023-03-21T13:06:08.637Z,16.70
2023-03-21T13:09:03.384Z,18.00
2023-03-21T13:11:31.021Z,17.50
2023-03-21T13:14:25.825Z,17.80
2023-03-21T13:17:50.041Z,16.30
2023-03-21T13:20:36.200Z,16.20
2023-03-21T13:23:07.727Z,18.30
2023-03-21T13:25:49.235Z,18.50
2023-03-21T13:28:28.817Z,17.20
2023-03-21T13:31:19.575Z,16.70
2023-03-21T13:33:50.598Z,15.30
2023-03-21T13:36:25.923Z,18.20
2023-03-21T13:39:01.803Z,17.10
2023-03-21T13:41:39.020Z,16.20
2023-03-21T13:44:41.250Z,14.30
2023-03-21T13:47:35.396Z,15.80
2023-03-21T13:50:17.075Z,16.70
2023-03-21T13:53:12.474Z,15.70
2023-03-21T13:55:46.205Z,16.60
2023-03-21T13:58:34.898Z,15.40
2023-03-21T14:01:25.910Z,14.40
2023-03-21T14:04:06.673Z,14.40
2023-03-21T14:06:42.452Z,13.90
2023-03-21T14:09:38.070Z,14.50
2023-03-21T14:12:08.225Z,15.80
2023-03-21T14:14:41.353Z,14.80
2023-03-21T14:17:24.910Z,15.50
2023-03-21T14:20:11.761Z,16.00
2023-03-21T14:22:42.799Z,14.80
2023-03-21T14:25:13.840Z,15.10
2023-03-21T14:27:44.290Z,15.20
2023-03-21T14:30:11.978Z,15.50
2023-03-21T14:32:42.571Z,15.90
2023-03-21T14:35:10.229Z,14.10
2023-03-21T14:37:43.609Z,14.00
2023-03-21T14:40:25.093Z,15.90
2023-03-21T14:42:52.875Z,16.00
2023-03-21T14:48:01.122Z,17.00
2023-03-21T14:50:33.259Z,17.70
2023-03-21T14:53:00.500Z,16.20
2023-03-21T14:55:27.719Z,14.90
2023-03-21T14:57:59.258Z,16.40
2023-03-21T15:00:28.020Z,16.20
2023-03-21T15:02:55.324Z,17.20
2023-03-21T15:05:38.252Z,17.80
2023-03-21T15:08:08.431Z,19.30
2023-03-21T15:10:35.747Z,18.40
2023-03-21T15:13:20.582Z,18.20
2023-03-21T15:15:54.290Z,18.30
2023-03-21T15:18:35.347Z,16.80
2023-03-21T15:21:21.511Z,18.10
2023-03-21T15:24:15.299Z,19.80
2023-03-21T15:26:47.342Z,19.00
2023-03-21T15:29:17.769Z,17.70
2023-03-21T15:31:46.544Z,18.80
2023-03-21T15:34:28.008Z,22.70
2023-03-21T15:37:25.723Z,22.10
2023-03-21T15:39:55.205Z,22.70
2023-03-21T15:42:29.297Z,23.20
2023-03-21T15:45:02.078Z,19.80
2023-03-21T15:47:41.929Z,21.20
2023-03-21T15:50:32.553Z,21.10
2023-03-21T15:53:02.016Z,22.90
2023-03-21T15:55:35.636Z,20.60
2023-03-21T15:58:12.627Z,21.80
2023-03-21T16:00:43.486Z,20.80
2023-03-21T16:03:31.842Z,21.00
2023-03-21T16:06:14.898Z,21.40
2023-03-21T16:08:45.831Z,21.90
2023-03-21T16:11:20.411Z,22.00
2023-03-21T16:13:47.725Z,24.80
2023-03-21T16:16:26.298Z,25.20
2023-03-21T16:19:01.160Z,25.50
2023-03-21T16:21:30.096Z,23.20
2023-03-21T16:23:58.762Z,23.70
2023-03-21T16:26:31.510Z,24.90
2023-03-21T16:29:00.048Z,26.70
2023-03-21T16:31:32.429Z,27.40
2023-03-21T16:34:04.925Z,25.90
2023-03-21T16:36:36.214Z,25.40
2023-03-21T16:39:20.010Z,25.10
2023-03-21T16:41:51.782Z,24.50
2023-03-21T16:44:21.643Z,26.10
2023-03-21T16:46:50.102Z,42.00
2023-03-21T16:49:26.205Z,37.80
2023-03-21T16:52:01.616Z,33.20
2023-03-21T16:54:31.363Z,31.00
2023-03-21T16:57:02.665Z,28.90
2023-03-21T16:59:40.897Z,26.50
2023-03-21T17:02:37.056Z,25.40
2023-03-21T17:05:09.565Z,24.90
2023-03-21T17:07:38.466Z,29.00
2023-03-21T17:10:25.020Z,26.00
2023-03-21T17:12:56.342Z,25.20
2023-03-21T17:15:28.561Z,26.20
2023-03-21T17:17:57.534Z,27.30
2023-03-21T17:20:54.734Z,30.50
2023-03-21T17:23:22.596Z,46.10
2023-03-21T17:25:55.749Z,51.70
2023-03-21T17:28:24.637Z,51.10
2023-03-21T17:30:54.635Z,48.50
2023-03-21T17:33:23.829Z,43.30
2023-03-21T17:35:52.316Z,42.30
2023-03-21T17:38:23.850Z,41.50
2023-03-21T17:40:52.752Z,40.60
2023-03-21T17:43:24.557Z,42.60
2023-03-21T17:45:52.404Z,43.50
2023-03-21T17:48:21.405Z,45.30
2023-03-21T17:50:49.174Z,45.40
2023-03-21T17:53:19.384Z,46.70
2023-03-21T17:55:52.157Z,47.60
2023-03-21T18:00:49.266Z,47.40
2023-03-21T18:03:22.328Z,47.80
2023-03-21T18:05:50.832Z,50.90
2023-03-21T18:08:20.569Z,44.50
2023-03-21T18:10:53.450Z,42.50
2023-03-21T18:13:24.137Z,43.20
2023-03-21T18:15:59.794Z,46.10
2023-03-21T18:21:10.357Z,45.20
2023-03-21T18:23:41.142Z,48.30
2023-03-21T18:26:09.831Z,45.30
2023-03-21T18:29:00.297Z,41.70
2023-03-21T18:31:39.883Z,42.50
2023-03-21T18:34:09.353Z,43.70
2023-03-21T18:36:43.586Z,41.20
2023-03-21T18:39:13.112Z,41.10
2023-03-21T18:41:43.071Z,39.50
2023-03-21T18:44:16.688Z,37.40
2023-03-21T18:46:50.831Z,39.40
2023-03-21T18:50:05.497Z,37.40
2023-03-21T18:52:14.382Z,39.60
2023-03-21T18:54:43.843Z,44.00
2023-03-21T19:00:12.151Z,45.90
2023-03-21T19:02:45.562Z,45.20
2023-03-21T19:05:17.054Z,46.70
2023-03-21T19:07:46.068Z,38.00
2023-03-21T19:10:20.182Z,40.10
2023-03-21T19:12:54.410Z,43.40
2023-03-21T19:15:23.658Z,46.80
2023-03-21T19:20:50.196Z,46.70
2023-03-21T19:23:21.165Z,45.20
2023-03-21T19:26:37.025Z,43.40
2023-03-21T19:29:08.083Z,37.60
2023-03-21T19:31:37.404Z,34.50
2023-03-21T19:34:07.763Z,30.80
2023-03-21T19:36:37.275Z,32.80
2023-03-21T19:39:11.665Z,32.90
2023-03-21T19:41:40.738Z,33.60
2023-03-21T19:44:10.177Z,34.40
2023-03-21T19:46:37.591Z,35.70
2023-03-21T19:49:07.035Z,44.50
2023-03-21T19:51:43.624Z,35.20
2023-03-21T19:54:10.885Z,35.20
2023-03-21T19:56:47.102Z,35.10
2023-03-21T19:59:17.056Z,33.10
2023-03-21T20:01:56.972Z,31.60
2023-03-21T20:04:36.547Z,27.50
2023-03-21T20:07:24.669Z,25.80
2023-03-21T20:10:00.760Z,24.20
2023-03-21T20:12:37.858Z,27.00
2023-03-21T20:15:26.667Z,27.40
2023-03-21T20:18:23.409Z,29.00
2023-03-21T20:20:58.216Z,28.30
2023-03-21T20:23:29.862Z,34.80
2023-03-21T20:26:00.578Z,27.90
2023-03-21T20:28:28.964Z,28.70
2023-03-21T20:31:10.437Z,26.60
2023-03-21T20:33:41.250Z,28.10
2023-03-21T20:36:38.807Z,29.40
2023-03-21T20:39:01.112Z,26.50
2023-03-21T20:41:33.285Z,24.90
2023-03-21T20:46:53.567Z,34.70
2023-03-21T20:49:33.717Z,27.50
2023-03-21T20:54:54.102Z,24.20
2023-03-21T20:57:26.631Z,31.20
2023-03-21T20:59:59.159Z,29.80
2023-03-21T21:02:28.171Z,29.00
2023-03-21T21:05:24.567Z,34.60
2023-03-21T21:07:51.162Z,31.60
2023-03-21T21:10:22.375Z,32.80
2023-03-21T21:12:50.672Z,30.10
2023-03-21T21:15:19.689Z,31.10
2023-03-21T21:18:11.275Z,33.50
2023-03-21T21:20:42.552Z,36.20
2023-03-21T21:23:10.216Z,31.80
2023-03-21T21:25:41.955Z,33.50
2023-03-21T21:28:11.838Z,36.60
2023-03-21T21:30:47.357Z,34.60
2023-03-21T21:33:17.513Z,33.90
2023-03-21T21:35:47.641Z,33.90
2023-03-21T21:38:17.169Z,36.40
2023-03-21T21:41:08.027Z,35.70
2023-03-21T21:43:35.153Z,27.00
2023-03-21T21:46:03.313Z,30.90
2023-03-21T21:48:34.224Z,30.60
2023-03-21T21:51:03.351Z,36.20
2023-03-21T21:53:33.913Z,36.00
2023-03-21T21:56:03.192Z,35.90
2023-03-21T21:58:38.263Z,36.50
2023-03-21T22:01:08.928Z,37.00
2023-03-21T22:03:41.125Z,35.50
2023-03-21T22:06:10.334Z,35.40
2023-03-21T22:08:50.136Z,38.00
2023-03-21T22:11:22.175Z,35.40
2023-03-21T22:15:19.782Z,35.40
2023-03-21T22:17:51.020Z,31.80
2023-03-21T22:20:19.865Z,33.20
2023-03-21T22:22:50.650Z,33.90
2023-03-21T22:25:20.363Z,37.00
2023-03-21T22:27:52.574Z,34.80
2023-03-21T22:30:20.631Z,32.40
2023-03-21T22:33:08.907Z,32.80
2023-03-21T22:35:47.525Z,32.10
2023-03-21T22:38:25.030Z,27.50
2023-03-21T22:41:00.936Z,36.60
2023-03-21T22:43:33.989Z,46.60
2023-03-21T22:46:03.363Z,46.30
2023-03-21T22:48:35.984Z,41.20
2023-03-21T22:51:05.881Z,42.80
2023-03-21T22:53:41.757Z,44.40
2023-03-21T22:56:13.359Z,55.30
2023-03-21T22:58:45.864Z,54.90
2023-03-21T23:01:21.944Z,51.80
2023-03-21T23:03:51.896Z,58.50
2023-03-21T23:06:21.737Z,59.00
2023-03-21T23:08:50.028Z,63.60
2023-03-21T23:11:19.401Z,59.60
2023-03-21T23:13:51.588Z,57.00
2023-03-21T23:16:30.849Z,57.30
2023-03-21T23:18:58.622Z,59.80
2023-03-21T23:21:26.632Z,57.80
2023-03-21T23:23:56.228Z,58.50
2023-03-21T23:26:29.076Z,57.30
2023-03-21T23:29:01.510Z,55.40
2023-03-21T23:31:33.584Z,56.00
2023-03-21T23:34:00.725Z,57.90
2023-03-21T23:36:29.256Z,53.10
2023-03-21T23:39:03.912Z,50.10
2023-03-21T23:41:32.200Z,47.90
2023-03-21T23:44:01.959Z,47.10
2023-03-21T23:46:34.042Z,44.00
2023-03-21T23:49:04.178Z,43.20
2023-03-21T23:51:35.630Z,39.20
2023-03-21T23:54:04.958Z,43.20
2023-03-21T23:56:41.367Z,47.10
2023-03-21T23:59:20.163Z,45.00
